Time;durP1;ratioP1;P1;durP2;ratioP2;P2;SDS_P1;SDS_P2;PMS_P1;PMS_P2;Temp;Humidity;BMP_temperature;BMP_pressure;BME280_temperature;BME280_humidity;BME280_pressure;Samples;Min_cycle;Max_cycle;Signal;HPM_P1;HPM_P2
2023/12/01 00:02:11;;;;;;;6.32;4.97;;;9.90;99.90;;;;;;5097996;28;20484;-72
2023/12/01 00:04:37;;;;;;;6.18;5.57;;;9.90;99.90;;;;;;5096845;28;20024;-70
2023/12/01 00:07:03;;;;;;;6.18;5.53;;;9.80;99.90;;;;;;5096296;28;20036;-71
2023/12/01 00:09:30;;;;;;;6.15;5.55;;;9.90;99.90;;;;;;5103548;28;20024;-71
2023/12/01 00:11:55;;;;;;;6.47;4.68;;;9.90;99.90;;;;;;5097706;28;20429;-71
2023/12/01 00:14:21;;;;;;;5.78;4.07;;;9.80;99.90;;;;;;5098123;28;20050;-71
2023/12/01 00:16:46;;;;;;;4.40;4.00;;;9.80;99.90;;;;;;5098005;28;20027;-71
2023/12/01 00:19:12;;;;;;;4.10;3.70;;;9.70;99.90;;;;;;5096413;28;20054;-71
2023/12/01 00:21:38;;;;;;;5.50;3.83;;;9.70;99.90;;;;;;5097335;28;20032;-71
2023/12/01 00:24:03;;;;;;;4.18;3.55;;;9.70;99.90;;;;;;5097651;28;20019;-71
2023/12/01 00:26:29;;;;;;;3.22;2.92;;;9.70;99.90;;;;;;5096057;28;20031;-70
2023/12/01 00:28:55;;;;;;;3.83;3.42;;;9.80;99.90;;;;;;5097605;28;20027;-70
2023/12/01 00:31:20;;;;;;;3.33;2.80;;;9.70;99.90;;;;;;5097353;28;20024;-71
2023/12/01 00:33:46;;;;;;;3.60;3.30;;;9.70;99.90;;;;;;5097586;28;20484;-72
2023/12/01 00:36:12;;;;;;;4.20;2.70;;;9.60;99.90;;;;;;5097245;28;20030;-72
2023/12/01 00:38:37;;;;;;;3.00;2.80;;;9.50;99.90;;;;;;5097354;28;20655;-72
2023/12/01 00:41:03;;;;;;;3.08;2.70;;;9.40;99.90;;;;;;5097435;28;20447;-71
2023/12/01 00:43:29;;;;;;;3.20;2.90;;;9.40;99.90;;;;;;5096037;28;20028;-72
2023/12/01 00:45:55;;;;;;;2.97;2.67;;;9.30;99.90;;;;;;5095661;28;20126;-72
2023/12/01 00:48:20;;;;;;;3.38;2.70;;;9.30;99.90;;;;;;5097488;28;20055;-72
2023/12/01 00:50:46;;;;;;;5.55;2.47;;;9.30;99.90;;;;;;5097012;28;20056;-72
2023/12/01 00:53:12;;;;;;;3.10;2.85;;;9.20;99.90;;;;;;5097125;28;20028;-72
2023/12/01 00:55:37;;;;;;;2.60;2.40;;;9.20;99.90;;;;;;5095521;28;20400;-72
2023/12/01 00:58:03;;;;;;;2.58;2.38;;;9.10;99.90;;;;;;5096869;28;20020;-72
2023/12/01 01:00:29;;;;;;;2.70;2.50;;;9.10;99.90;;;;;;5096653;28;20082;-72
2023/12/01 01:02:55;;;;;;;3.75;2.85;;;9.10;99.90;;;;;;5096927;28;20017;-71
2023/12/01 01:05:21;;;;;;;2.67;2.47;;;9.00;99.90;;;;;;5096655;28;20030;-72
2023/12/01 01:07:46;;;;;;;2.63;2.42;;;9.00;99.90;;;;;;5096685;28;20123;-72
2023/12/01 01:10:12;;;;;;;2.67;2.47;;;9.00;99.90;;;;;;5100535;28;20034;-72
2023/12/01 01:12:38;;;;;;;2.97;2.67;;;9.00;99.90;;;;;;5095259;28;20051;-73
2023/12/01 01:15:04;;;;;;;2.90;2.70;;;9.00;99.90;;;;;;5095101;28;20028;-72
2023/12/01 01:17:31;;;;;;;2.60;2.40;;;9.00;99.90;;;;;;5095115;28;20074;-73
2023/12/01 01:19:58;;;;;;;3.05;2.42;;;8.90;99.90;;;;;;5096634;28;20060;-72
2023/12/01 01:22:24;;;;;;;2.60;2.40;;;8.90;99.90;;;;;;5096434;28;20421;-72
2023/12/01 01:24:50;;;;;;;2.80;2.33;;;9.00;99.90;;;;;;5096452;28;20051;-72
2023/12/01 01:27:16;;;;;;;2.85;2.40;;;9.00;99.90;;;;;;5095101;28;20024;-73
2023/12/01 01:29:43;;;;;;;3.60;2.35;;;8.90;99.90;;;;;;5096395;28;20389;-72
2023/12/01 01:32:08;;;;;;;4.05;2.47;;;8.90;99.90;;;;;;5096391;28;20048;-72
2023/12/01 01:34:34;;;;;;;2.70;2.47;;;8.90;99.90;;;;;;5095053;28;20081;-73
2023/12/01 01:36:59;;;;;;;3.08;2.60;;;8.90;99.90;;;;;;5094692;28;20444;-73
2023/12/01 01:39:26;;;;;;;2.70;2.50;;;8.90;99.90;;;;;;5096211;28;20035;-73
2023/12/01 01:41:53;;;;;;;2.60;2.40;;;8.90;99.90;;;;;;5096268;28;20046;-73
2023/12/01 01:44:18;;;;;;;2.63;2.42;;;8.90;99.90;;;;;;5094460;28;20050;-73
2023/12/01 01:46:46;;;;;;;2.72;2.40;;;8.90;99.90;;;;;;5096265;28;20434;-73
2023/12/01 01:49:11;;;;;;;2.65;2.45;;;8.90;99.90;;;;;;5096030;28;20145;-73
2023/12/01 01:51:38;;;;;;;4.55;4.15;;;8.90;99.90;;;;;;5095881;28;20063;-72
2023/12/01 01:54:04;;;;;;;3.97;3.20;;;8.90;99.90;;;;;;5095972;28;20034;-73
2023/12/01 01:56:31;;;;;;;3.72;2.95;;;8.90;99.90;;;;;;5094774;28;20083;-73
2023/12/01 01:58:58;;;;;;;4.38;3.95;;;8.90;99.90;;;;;;5096010;28;20035;-72
2023/12/01 02:01:25;;;;;;;2.88;2.50;;;8.90;99.90;;;;;;5095750;28;20024;-73
2023/12/01 02:03:52;;;;;;;2.97;2.60;;;8.90;99.90;;;;;;5095992;28;20419;-73
2023/12/01 02:06:19;;;;;;;3.00;2.70;;;8.90;99.90;;;;;;5094138;28;20561;-73
2023/12/01 02:08:45;;;;;;;3.85;2.55;;;8.90;99.90;;;;;;5101633;28;20084;-72
2023/12/01 02:11:13;;;;;;;2.90;2.70;;;8.90;99.90;;;;;;5098100;28;20059;-72
2023/12/01 02:13:39;;;;;;;3.58;2.88;;;8.90;99.90;;;;;;5094771;28;20031;-73
2023/12/01 02:16:06;;;;;;;2.60;2.40;;;8.90;99.90;;;;;;5094096;28;20024;-72
2023/12/01 02:18:33;;;;;;;4.55;3.45;;;8.90;99.90;;;;;;5094535;28;20107;-73
2023/12/01 02:21:00;;;;;;;4.97;3.13;;;8.90;99.90;;;;;;5095399;28;20028;-73
2023/12/01 02:23:29;;;;;;;4.60;3.30;;;8.90;99.90;;;;;;5095575;28;20038;-73
2023/12/01 02:25:54;;;;;;;11.90;4.28;;;8.90;99.90;;;;;;5094104;28;20032;-72
2023/12/01 02:28:20;;;;;;;8.57;4.32;;;8.90;99.90;;;;;;5095474;28;20027;-72
2023/12/01 02:30:54;;;;;;;3.40;3.10;;;8.90;99.90;;;;;;5095385;28;20516;-72
2023/12/01 02:33:20;;;;;;;4.30;2.88;;;8.80;99.90;;;;;;5095673;28;20078;-72
2023/12/01 02:35:46;;;;;;;2.90;2.55;;;8.90;99.90;;;;;;5093730;28;20055;-72
2023/12/01 02:38:13;;;;;;;3.05;2.58;;;8.80;99.90;;;;;;5095518;28;20031;-72
2023/12/01 02:40:42;;;;;;;4.30;2.65;;;8.80;99.90;;;;;;5095379;28;20499;-72
2023/12/01 02:43:10;;;;;;;4.32;3.00;;;8.80;99.90;;;;;;5095528;28;20827;-71
2023/12/01 02:45:36;;;;;;;10.25;4.63;;;8.80;99.90;;;;;;5093862;28;20035;-71
2023/12/01 02:48:02;;;;;;;7.07;4.15;;;8.80;99.90;;;;;;5093897;28;20484;-71
2023/12/01 02:50:27;;;;;;;3.88;3.35;;;8.80;99.90;;;;;;5095342;28;20426;-71
2023/12/01 02:52:53;;;;;;;3.85;3.17;;;8.80;99.90;;;;;;5095245;28;20032;-71
2023/12/01 02:55:18;;;;;;;3.88;2.67;;;8.80;99.90;;;;;;5093912;28;20028;-71
2023/12/01 02:57:44;;;;;;;3.20;2.90;;;8.80;99.90;;;;;;5094022;28;20020;-71
2023/12/01 03:00:13;;;;;;;2.78;2.58;;;8.80;99.90;;;;;;5093646;28;20024;-71
2023/12/01 03:02:43;;;;;;;5.13;3.10;;;8.80;99.90;;;;;;5095279;28;20020;-71
2023/12/01 03:05:10;;;;;;;4.13;3.70;;;8.80;99.90;;;;;;5095102;28;20104;-71
2023/12/01 03:07:39;;;;;;;3.60;3.30;;;8.80;99.90;;;;;;5095447;28;20081;-71
2023/12/01 03:10:09;;;;;;;5.00;3.65;;;8.80;99.90;;;;;;5102219;28;20024;-71
2023/12/01 03:12:40;;;;;;;5.30;3.63;;;8.80;99.90;;;;;;5095041;28;20072;-71
2023/12/01 03:15:09;;;;;;;4.28;3.75;;;8.80;99.90;;;;;;5094876;28;20062;-72
2023/12/01 03:17:35;;;;;;;4.07;3.72;;;8.80;99.90;;;;;;5093704;28;20020;-71
2023/12/01 03:20:05;;;;;;;3.60;3.10;;;8.80;99.90;;;;;;5094840;28;20023;-71
2023/12/01 03:22:33;;;;;;;3.40;3.00;;;8.80;99.90;;;;;;5093598;28;20052;-71
2023/12/01 03:24:59;;;;;;;3.33;3.03;;;8.80;99.90;;;;;;5093884;28;20488;-71
2023/12/01 03:27:27;;;;;;;3.42;3.13;;;8.70;99.90;;;;;;5093852;28;20052;-72
2023/12/01 03:29:53;;;;;;;10.27;4.50;;;8.70;99.90;;;;;;5095152;28;20097;-71
2023/12/01 03:32:19;;;;;;;6.07;3.42;;;8.70;99.90;;;;;;5094281;28;20115;-72
2023/12/01 03:34:45;;;;;;;5.85;3.70;;;8.70;99.90;;;;;;5097034;28;20031;-72
2023/12/01 03:37:10;;;;;;;3.90;3.60;;;8.70;99.90;;;;;;5091940;28;20024;-72
2023/12/01 03:39:36;;;;;;;3.45;3.15;;;8.70;99.90;;;;;;5091814;28;20030;-72
2023/12/01 03:42:02;;;;;;;5.18;3.85;;;8.70;99.90;;;;;;5096961;28;20024;-72
2023/12/01 03:44:28;;;;;;;7.47;3.90;;;8.70;99.90;;;;;;5098515;28;20763;-72
2023/12/01 03:46:54;;;;;;;4.18;3.78;;;8.70;99.90;;;;;;5091834;28;20020;-73
2023/12/01 03:49:20;;;;;;;5.45;3.78;;;8.70;99.90;;;;;;5097058;28;20136;-72
2023/12/01 03:51:46;;;;;;;4.10;3.70;;;8.70;99.90;;;;;;5090046;28;20020;-73
2023/12/01 03:54:12;;;;;;;4.25;3.60;;;8.70;99.90;;;;;;5098307;28;20428;-72
2023/12/01 03:56:37;;;;;;;4.45;3.60;;;8.70;99.90;;;;;;5098144;28;20027;-73
2023/12/01 03:59:09;;;;;;;3.67;3.38;;;8.70;99.90;;;;;;5098387;28;20020;-73
2023/12/01 04:01:36;;;;;;;3.78;3.40;;;8.70;99.90;;;;;;5091179;28;20154;-73
2023/12/01 04:04:02;;;;;;;5.15;3.40;;;8.70;99.90;;;;;;5086031;28;20017;-73
2023/12/01 04:06:27;;;;;;;5.55;3.80;;;8.70;99.90;;;;;;5088051;28;20025;-73
2023/12/01 04:08:53;;;;;;;4.10;3.80;;;8.70;99.90;;;;;;5106378;28;20019;-73
2023/12/01 04:11:19;;;;;;;4.90;3.85;;;8.70;99.90;;;;;;5098261;28;20052;-73
2023/12/01 04:13:45;;;;;;;3.90;3.60;;;8.70;99.90;;;;;;5097856;28;20100;-73
2023/12/01 04:16:10;;;;;;;3.67;3.15;;;8.70;99.90;;;;;;5097855;28;20043;-73
2023/12/01 04:18:36;;;;;;;7.72;6.00;;;8.70;99.90;;;;;;5089586;28;20027;-73
2023/12/01 04:21:08;;;;;;;6.95;4.38;;;8.60;99.90;;;;;;5095897;28;20135;-73
2023/12/01 04:23:34;;;;;;;10.10;5.57;;;8.60;99.90;;;;;;5096214;28;20427;-73
2023/12/01 04:26:00;;;;;;;3.40;3.10;;;8.60;99.90;;;;;;5096212;28;20076;-72
2023/12/01 04:28:26;;;;;;;4.13;3.10;;;8.60;99.90;;;;;;5098061;28;20041;-72
2023/12/01 04:30:52;;;;;;;4.88;3.53;;;8.60;99.90;;;;;;5097539;28;20459;-72
2023/12/01 04:33:18;;;;;;;4.97;3.28;;;8.60;99.90;;;;;;5097982;28;20391;-73
2023/12/01 04:35:44;;;;;;;3.65;3.35;;;8.60;99.90;;;;;;5097749;28;20024;-72
2023/12/01 04:38:10;;;;;;;4.28;3.40;;;8.60;99.90;;;;;;5097411;28;20081;-73
2023/12/01 04:40:36;;;;;;;4.38;3.80;;;8.60;99.90;;;;;;5097445;28;20659;-73
2023/12/01 04:43:03;;;;;;;9.00;5.78;;;8.60;99.90;;;;;;5096812;28;20016;-73
2023/12/01 04:45:31;;;;;;;4.00;3.60;;;8.60;99.90;;;;;;5096710;28;20024;-73
2023/12/01 04:47:57;;;;;;;8.60;4.10;;;8.60;99.90;;;;;;5085468;28;20099;-73
2023/12/01 04:50:27;;;;;;;5.35;4.00;;;8.60;99.90;;;;;;5096943;28;20067;-73
2023/12/01 04:52:58;;;;;;;4.82;4.10;;;8.60;99.90;;;;;;5095723;28;20063;-73
2023/12/01 04:55:25;;;;;;;10.32;5.88;;;8.60;99.90;;;;;;5095641;28;20032;-73
2023/12/01 04:57:51;;;;;;;4.85;4.05;;;8.60;99.90;;;;;;5096931;28;20079;-73
2023/12/01 05:00:21;;;;;;;11.10;4.97;;;8.60;99.90;;;;;;5097026;28;20054;-73
2023/12/01 05:02:54;;;;;;;4.75;4.13;;;8.70;99.90;;;;;;5096893;28;20047;-73
2023/12/01 05:05:26;;;;;;;4.65;3.92;;;8.70;99.90;;;;;;5096704;28;20130;-73
2023/12/01 05:07:57;;;;;;;4.40;4.00;;;8.70;99.90;;;;;;5096996;28;20020;-72
2023/12/01 05:10:24;;;;;;;6.25;3.65;;;8.60;99.90;;;;;;5083651;28;20040;-73
2023/12/01 05:12:51;;;;;;;4.35;3.95;;;8.60;99.90;;;;;;5095554;28;20107;-72
2023/12/01 05:15:22;;;;;;;4.40;4.00;;;8.60;99.90;;;;;;5096825;28;20663;-72
2023/12/01 05:17:50;;;;;;;5.75;4.25;;;8.60;99.90;;;;;;5096370;28;20021;-73
2023/12/01 05:20:17;;;;;;;19.80;7.60;;;8.60;99.90;;;;;;5088354;28;20027;-73
2023/12/01 05:22:50;;;;;;;63.00;18.40;;;8.70;99.90;;;;;;5096503;28;20024;-73
2023/12/01 05:25:17;;;;;;;8.52;5.63;;;8.70;99.90;;;;;;5087255;28;20392;-73
2023/12/01 05:27:46;;;;;;;7.15;5.18;;;8.60;99.90;;;;;;5096590;28;20400;-73
2023/12/01 05:30:16;;;;;;;4.95;4.35;;;8.70;99.90;;;;;;5096419;28;20082;-73
2023/12/01 05:32:44;;;;;;;5.47;4.47;;;8.60;99.90;;;;;;5093823;28;20027;-72
2023/12/01 05:35:10;;;;;;;42.10;20.30;;;8.60;99.90;;;;;;5094836;28;20036;-73
2023/12/01 05:37:56;;;;;;;7.68;4.47;;;8.60;99.90;;;;;;5096596;28;20027;-72
2023/12/01 05:40:27;;;;;;;17.83;8.15;;;8.60;99.90;;;;;;5094680;28;20012;-73
2023/12/01 05:42:54;;;;;;;7.35;4.75;;;8.60;99.90;;;;;;5096360;28;20170;-72
2023/12/01 05:45:24;;;;;;;7.30;4.93;;;8.60;99.90;;;;;;5094726;28;20031;-72
2023/12/01 05:47:52;;;;;;;6.63;5.38;;;8.60;99.90;;;;;;5094902;28;20209;-73
2023/12/01 05:50:26;;;;;;;6.10;4.88;;;8.60;99.90;;;;;;5090858;28;20034;-73
2023/12/01 05:52:53;;;;;;;5.53;4.97;;;8.60;99.90;;;;;;5096007;28;20106;-73
2023/12/01 05:55:20;;;;;;;8.48;5.05;;;8.60;99.90;;;;;;5095693;28;20043;-73
2023/12/01 05:57:48;;;;;;;9.68;5.53;;;8.60;99.90;;;;;;5094800;28;20031;-72
2023/12/01 06:00:29;;;;;;;101.88;64.28;;;8.60;99.90;;;;;;5094501;28;20504;-73
2023/12/01 06:02:57;;;;;;;8.48;6.45;;;8.60;99.90;;;;;;5095884;28;20023;-73
2023/12/01 06:05:23;;;;;;;9.48;6.32;;;8.60;99.90;;;;;;5094310;28;20024;-72
2023/12/01 06:07:57;;;;;;;7.70;5.93;;;8.60;99.90;;;;;;5095612;28;20065;-73
2023/12/01 06:10:24;;;;;;;6.30;5.70;;;8.60;99.90;;;;;;5095733;28;20032;-73
2023/12/01 06:12:50;;;;;;;5.65;5.05;;;8.60;99.90;;;;;;5095886;28;20023;-73
2023/12/01 06:15:17;;;;;;;6.97;6.25;;;8.60;99.90;;;;;;5094265;28;20031;-73
2023/12/01 06:17:45;;;;;;;8.60;5.60;;;8.60;99.90;;;;;;5094333;28;20112;-72
2023/12/01 06:20:19;;;;;;;14.13;8.85;;;8.60;99.90;;;;;;5095502;28;20388;-73
2023/12/01 06:22:57;;;;;;;7.93;6.15;;;8.60;99.90;;;;;;5095534;28;20042;-73
2023/12/01 06:25:27;;;;;;;5.88;5.28;;;8.60;99.90;;;;;;5095781;28;20484;-73
2023/12/01 06:27:53;;;;;;;7.03;5.93;;;8.50;99.90;;;;;;5094359;28;20032;-73
2023/12/01 06:30:19;;;;;;;10.02;7.05;;;8.50;99.90;;;;;;5095435;28;20452;-72
2023/12/01 06:32:46;;;;;;;6.38;5.18;;;8.50;99.90;;;;;;5095595;28;20098;-72
2023/12/01 06:35:13;;;;;;;7.32;5.57;;;8.50;99.90;;;;;;5093914;28;20028;-72
2023/12/01 06:37:40;;;;;;;5.78;5.18;;;8.50;99.90;;;;;;5094309;28;20028;-72
2023/12/01 06:40:13;;;;;;;5.25;4.75;;;8.50;99.90;;;;;;5095483;28;20096;-73
2023/12/01 06:42:42;;;;;;;5.80;5.00;;;8.50;99.90;;;;;;5095401;28;20092;-72
2023/12/01 06:45:19;;;;;;;5.60;5.03;;;8.50;99.90;;;;;;5094078;28;20032;-73
2023/12/01 06:47:47;;;;;;;6.85;5.15;;;8.50;99.90;;;;;;5094156;28;20031;-73
2023/12/01 06:50:14;;;;;;;6.05;5.13;;;8.50;99.90;;;;;;5093660;28;20395;-72
2023/12/01 06:52:41;;;;;;;5.40;4.90;;;8.50;99.90;;;;;;5095386;28;20036;-73
2023/12/01 06:55:07;;;;;;;7.68;5.28;;;8.50;99.90;;;;;;5095561;28;20020;-72
2023/12/01 06:57:40;;;;;;;6.15;5.53;;;8.40;99.90;;;;;;5094006;28;20028;-73
2023/12/01 07:00:08;;;;;;;6.05;5.40;;;8.40;99.90;;;;;;5095578;28;20016;-72
2023/12/01 07:02:42;;;;;;;7.28;5.93;;;8.50;99.90;;;;;;5094994;28;20031;-72
2023/12/01 07:05:08;;;;;;;7.07;5.90;;;8.40;99.90;;;;;;5093646;28;20020;-73
2023/12/01 07:07:37;;;;;;;5.85;5.25;;;8.40;99.90;;;;;;5096716;28;20395;-73
2023/12/01 07:10:05;;;;;;;7.45;5.93;;;8.50;99.90;;;;;;5105870;28;20081;-72
2023/12/01 07:12:30;;;;;;;7.72;6.25;;;8.40;99.90;;;;;;5097673;28;20052;-72
2023/12/01 07:14:56;;;;;;;7.75;6.63;;;8.50;99.90;;;;;;5097751;28;20023;-72
2023/12/01 07:17:22;;;;;;;9.02;6.80;;;8.50;99.90;;;;;;5099018;28;20102;-73
2023/12/01 07:19:48;;;;;;;7.07;6.38;;;8.40;99.90;;;;;;5097294;28;20063;-73
2023/12/01 07:22:14;;;;;;;9.43;6.90;;;8.40;99.90;;;;;;5098843;28;20016;-73
2023/12/01 07:24:40;;;;;;;7.75;6.53;;;8.50;99.90;;;;;;5097605;28;20028;-73
2023/12/01 07:27:09;;;;;;;9.27;7.63;;;8.50;99.90;;;;;;5097455;28;20024;-73
2023/12/01 07:29:38;;;;;;;9.07;7.82;;;8.50;99.90;;;;;;5098879;28;20244;-72
2023/12/01 07:32:04;;;;;;;9.43;8.32;;;8.50;99.90;;;;;;5098564;28;20024;-72
2023/12/01 07:34:29;;;;;;;13.55;7.70;;;8.50;99.90;;;;;;5098369;28;20035;-72
2023/12/01 07:36:55;;;;;;;10.00;7.80;;;8.50;99.90;;;;;;5098521;28;20123;-72
2023/12/01 07:39:22;;;;;;;9.30;7.40;;;8.50;99.90;;;;;;5098727;28;20028;-72
2023/12/01 07:41:49;;;;;;;11.10;7.70;;;8.50;99.90;;;;;;5098587;28;20422;-72
2023/12/01 07:44:15;;;;;;;12.40;8.60;;;8.50;99.90;;;;;;5098511;28;20031;-71
2023/12/01 07:46:41;;;;;;;9.07;8.15;;;8.50;99.90;;;;;;5098430;28;20039;-71
2023/12/01 07:49:11;;;;;;;9.88;8.52;;;8.50;99.90;;;;;;5097215;28;20077;-72
2023/12/01 07:51:40;;;;;;;12.27;8.10;;;8.50;99.90;;;;;;5098018;28;20012;-72
2023/12/01 07:54:06;;;;;;;31.17;18.08;;;8.50;99.90;;;;;;5088445;28;20060;-72
2023/12/01 07:56:31;;;;;;;9.60;7.68;;;8.50;99.90;;;;;;5091901;28;20028;-72
2023/12/01 07:58:57;;;;;;;10.20;8.10;;;8.50;99.90;;;;;;5098303;28;20028;-72
2023/12/01 08:01:23;;;;;;;9.82;7.78;;;8.60;99.90;;;;;;5096373;28;20153;-75
2023/12/01 08:03:49;;;;;;;23.30;13.60;;;8.60;99.90;;;;;;5098419;28;20029;-74
2023/12/01 08:06:14;;;;;;;16.38;10.63;;;8.60;99.90;;;;;;5094587;28;20024;-74
2023/12/01 08:08:41;;;;;;;60.25;27.25;;;8.60;99.90;;;;;;5095292;28;20088;-73
2023/12/01 08:11:07;;;;;;;46.40;22.17;;;8.60;99.90;;;;;;5097037;28;20079;-74
2023/12/01 08:13:33;;;;;;;39.15;19.63;;;8.70;99.90;;;;;;5096601;28;20028;-74
2023/12/01 08:15:59;;;;;;;299.85;128.07;;;8.70;99.90;;;;;;5097876;28;20111;-74
2023/12/01 08:18:25;;;;;;;75.95;40.38;;;8.70;99.90;;;;;;5092485;28;20044;-75
2023/12/01 08:20:50;;;;;;;28.48;16.92;;;8.70;99.90;;;;;;5096791;28;20058;-76
2023/12/01 08:23:17;;;;;;;21.42;14.57;;;8.80;99.90;;;;;;5096825;28;20019;-76
2023/12/01 08:25:44;;;;;;;30.55;18.30;;;8.80;99.90;;;;;;5096173;28;20032;-76
2023/12/01 08:28:10;;;;;;;22.70;15.18;;;8.80;99.90;;;;;;5098330;28;20034;-76
2023/12/01 08:30:36;;;;;;;20.65;13.48;;;8.80;99.90;;;;;;5096810;28;20518;-76
2023/12/01 08:33:03;;;;;;;66.65;38.65;;;8.90;99.90;;;;;;5096854;28;20031;-76
2023/12/01 08:35:28;;;;;;;146.65;84.28;;;8.90;99.90;;;;;;5097560;28;20032;-76
2023/12/01 08:37:54;;;;;;;80.00;47.70;;;8.90;99.90;;;;;;5094042;28;20577;-76
2023/12/01 08:40:20;;;;;;;28.13;18.33;;;8.90;99.90;;;;;;5100819;28;20019;-76
2023/12/01 08:42:46;;;;;;;21.42;15.20;;;8.90;99.90;;;;;;5093765;28;20115;-76
2023/12/01 08:45:12;;;;;;;18.33;14.15;;;8.90;99.90;;;;;;5094738;28;20074;-76
2023/12/01 08:47:39;;;;;;;17.90;13.43;;;8.90;99.90;;;;;;5095558;28;20086;-76
2023/12/01 08:50:05;;;;;;;22.50;13.77;;;8.90;99.90;;;;;;5096216;28;20396;-76
2023/12/01 08:52:31;;;;;;;17.38;12.52;;;8.90;99.90;;;;;;5097032;28;20106;-76
2023/12/01 08:54:58;;;;;;;17.63;13.82;;;8.90;99.90;;;;;;5092813;28;20024;-76
2023/12/01 08:57:24;;;;;;;17.48;12.55;;;8.90;99.90;;;;;;5094345;28;20020;-77
2023/12/01 08:59:50;;;;;;;22.70;15.77;;;8.90;99.90;;;;;;5097211;28;20020;-77
2023/12/01 09:02:15;;;;;;;15.40;12.43;;;8.90;99.90;;;;;;5096472;28;20023;-77
2023/12/01 09:04:41;;;;;;;18.60;13.13;;;8.90;99.90;;;;;;5095821;28;20032;-77
2023/12/01 09:07:06;;;;;;;17.77;12.30;;;9.00;99.90;;;;;;5101345;28;20028;-76
2023/12/01 09:09:33;;;;;;;18.20;15.07;;;9.10;99.90;;;;;;5096468;28;20143;-77
2023/12/01 09:11:58;;;;;;;18.10;14.13;;;9.10;99.90;;;;;;5100216;28;20075;-78
2023/12/01 09:14:24;;;;;;;18.25;12.55;;;9.10;99.90;;;;;;5096062;28;20396;-77
2023/12/01 09:16:50;;;;;;;15.85;13.32;;;9.20;99.90;;;;;;5096120;28;20479;-77
2023/12/01 09:19:15;;;;;;;16.35;12.48;;;9.20;99.90;;;;;;5093489;28;20028;-77
2023/12/01 09:21:41;;;;;;;17.05;11.85;;;9.20;99.90;;;;;;5097192;28;20046;-77
2023/12/01 09:24:07;;;;;;;14.45;11.60;;;9.20;99.90;;;;;;5091352;28;20035;-77
2023/12/01 09:26:32;;;;;;;17.88;12.25;;;9.30;99.90;;;;;;5092634;28;20859;-77
2023/12/01 09:28:58;;;;;;;18.58;12.85;;;9.30;99.90;;;;;;5094725;28;20032;-77
2023/12/01 09:31:23;;;;;;;17.38;13.48;;;9.20;99.90;;;;;;5094094;28;20046;-77
2023/12/01 09:33:49;;;;;;;18.08;13.55;;;9.30;99.90;;;;;;5091890;28;20403;-77
2023/12/01 09:36:18;;;;;;;20.77;14.07;;;9.30;99.90;;;;;;5093799;28;20047;-77
2023/12/01 09:38:44;;;;;;;19.20;15.43;;;9.40;99.90;;;;;;5091147;28;20032;-77
2023/12/01 09:41:10;;;;;;;22.75;15.68;;;9.40;99.90;;;;;;5097308;28;20042;-76
2023/12/01 09:43:38;;;;;;;20.15;15.63;;;9.50;99.90;;;;;;5093581;28;20408;-76
2023/12/01 09:46:04;;;;;;;23.85;15.75;;;9.50;99.90;;;;;;5090796;28;20119;-76
2023/12/01 09:48:34;;;;;;;22.52;15.00;;;9.40;99.90;;;;;;5092997;28;20035;-77
2023/12/01 09:51:00;;;;;;;18.27;15.02;;;9.50;99.90;;;;;;5094217;28;20049;-76
2023/12/01 09:53:25;;;;;;;17.50;14.52;;;9.40;99.90;;;;;;5090328;28;20112;-75
2023/12/01 09:55:51;;;;;;;18.60;14.52;;;9.50;99.90;;;;;;5089560;28;20047;-75
2023/12/01 09:58:19;;;;;;;18.55;13.52;;;9.50;99.90;;;;;;5095446;28;20024;-75
2023/12/01 10:00:48;;;;;;;18.58;13.65;;;9.40;99.90;;;;;;5092663;28;20480;-76
2023/12/01 10:03:13;;;;;;;21.50;13.45;;;9.40;99.90;;;;;;5090916;28;20051;-75
2023/12/01 10:05:41;;;;;;;17.08;13.05;;;9.30;99.90;;;;;;5091821;28;20034;-75
2023/12/01 10:08:07;;;;;;;18.80;11.70;;;9.30;99.90;;;;;;5095252;28;20101;-74
2023/12/01 10:10:33;;;;;;;20.20;13.43;;;9.30;99.90;;;;;;5093193;28;20027;-75
2023/12/01 10:13:04;;;;;;;17.48;13.13;;;9.20;99.90;;;;;;5095184;28;20039;-75
2023/12/01 10:15:32;;;;;;;21.02;14.18;;;9.20;99.90;;;;;;5093051;28;20031;-76
2023/12/01 10:18:09;;;;;;;19.52;14.90;;;9.20;99.90;;;;;;5093355;28;20032;-76
2023/12/01 10:20:35;;;;;;;20.25;13.73;;;9.20;99.90;;;;;;5094781;28;20048;-75
2023/12/01 10:23:15;;;;;;;19.23;13.55;;;9.20;99.90;;;;;;5094247;28;20060;-75
2023/12/01 10:25:45;;;;;;;16.88;12.93;;;9.10;99.90;;;;;;5095514;28;20086;-76
2023/12/01 10:28:12;;;;;;;;;;;9.10;99.90;;;;;;5095137;28;20031;-75
2023/12/01 10:30:50;;;;;;;14.63;11.43;;;9.10;99.90;;;;;;5092722;28;20395;-76
2023/12/01 10:33:16;;;;;;;18.95;13.00;;;9.10;99.90;;;;;;5096141;28;20028;-75
2023/12/01 10:36:09;;;;;;;17.55;12.60;;;9.10;99.90;;;;;;5095389;28;20031;-75
2023/12/01 10:38:36;;;;;;;16.42;11.88;;;9.10;99.90;;;;;;5089160;28;20396;-75
2023/12/01 10:41:03;;;;;;;14.32;11.38;;;9.10;99.90;;;;;;5099142;28;20020;-75
2023/12/01 10:43:30;;;;;;;13.93;11.18;;;9.10;99.90;;;;;;5097681;28;20012;-75
2023/12/01 10:46:04;;;;;;;11.25;9.55;;;9.00;99.90;;;;;;5099849;28;20059;-76
2023/12/01 10:48:32;;;;;;;12.10;9.57;;;9.00;99.90;;;;;;5100577;28;20027;-76
2023/12/01 10:51:00;;;;;;;12.70;10.27;;;9.00;99.90;;;;;;5098412;28;20020;-76
2023/12/01 10:53:28;;;;;;;12.50;9.40;;;9.00;99.90;;;;;;5098125;28;20110;-76
2023/12/01 10:55:55;;;;;;;12.20;9.43;;;9.00;99.90;;;;;;5098965;28;20043;-74
2023/12/01 10:58:23;;;;;;;12.95;10.70;;;9.00;99.90;;;;;;5098611;28;20177;-75
2023/12/01 11:00:50;;;;;;;12.23;10.27;;;9.00;99.90;;;;;;5098710;28;20059;-75
2023/12/01 11:03:22;;;;;;;12.85;9.90;;;9.00;99.90;;;;;;5098606;28;20509;-76
2023/12/01 11:06:52;;;;;;;11.55;9.52;;;9.00;99.90;;;;;;5094442;28;20488;-73
2023/12/01 11:09:42;;;;;;;14.23;11.45;;;8.90;99.90;;;;;;5044766;28;20112;-75
2023/12/01 11:12:21;;;;;;;14.75;11.07;;;8.90;99.90;;;;;;5094081;28;20115;-76
2023/12/01 11:14:51;;;;;;;16.05;11.65;;;8.90;99.90;;;;;;5094599;28;20027;-76
2023/12/01 11:17:18;;;;;;;14.35;11.07;;;8.90;99.90;;;;;;5102477;28;20028;-76
2023/12/01 11:19:43;;;;;;;18.60;13.07;;;9.00;99.90;;;;;;5093856;28;20023;-76
2023/12/01 11:22:32;;;;;;;12.82;9.70;;;9.00;99.90;;;;;;5097632;28;20024;-76
2023/12/01 11:24:58;;;;;;;16.08;8.38;;;9.10;99.90;;;;;;5099133;28;20039;-76
2023/12/01 11:27:26;;;;;;;14.02;7.93;;;9.10;99.90;;;;;;5100902;28;20024;-75
2023/12/01 11:30:01;;;;;;;8.07;6.55;;;9.10;99.90;;;;;;5098884;28;20067;-75
2023/12/01 11:32:33;;;;;;;6.82;5.95;;;9.10;99.90;;;;;;5095022;28;20025;-76
2023/12/01 11:35:10;;;;;;;9.82;6.13;;;9.10;99.90;;;;;;5099122;28;20024;-75
2023/12/01 11:38:04;;;;;;;6.47;5.72;;;9.10;99.90;;;;;;5096863;28;20028;-75
2023/12/01 11:40:39;;;;;;;6.15;5.55;;;9.10;99.90;;;;;;5097209;28;20020;-76
2023/12/01 11:43:08;;;;;;;7.22;5.43;;;9.10;99.90;;;;;;5099985;28;20020;-76
2023/12/01 11:45:41;;;;;;;6.13;5.32;;;9.20;99.90;;;;;;5098822;28;20012;-75
2023/12/01 11:48:10;;;;;;;5.85;5.25;;;9.10;99.90;;;;;;5098088;28;20028;-75
2023/12/01 11:50:38;;;;;;;6.07;5.47;;;9.10;99.90;;;;;;5096620;28;20472;-75
2023/12/01 11:53:05;;;;;;;6.97;5.47;;;9.10;99.90;;;;;;5098968;28;20032;-75
2023/12/01 11:55:31;;;;;;;7.00;6.20;;;9.20;99.90;;;;;;5098325;28;20035;-74
2023/12/01 11:57:58;;;;;;;7.15;6.45;;;9.10;99.90;;;;;;5101804;28;20031;-74
2023/12/01 12:00:25;;;;;;;6.47;5.85;;;9.20;99.90;;;;;;5098107;28;20012;-75
2023/12/01 12:02:52;;;;;;;4.90;4.40;;;9.30;99.90;;;;;;5097024;28;20024;-75
2023/12/01 12:05:17;;;;;;;6.85;4.43;;;9.30;99.90;;;;;;5100292;28;20020;-75
2023/12/01 12:07:45;;;;;;;4.65;4.18;;;9.30;99.90;;;;;;5096351;28;20103;-75
2023/12/01 12:10:14;;;;;;;4.20;3.60;;;9.30;99.90;;;;;;5101037;28;20170;-74
2023/12/01 12:12:39;;;;;;;4.07;3.67;;;9.20;99.90;;;;;;5097998;28;20413;-75
2023/12/01 12:15:08;;;;;;;4.60;4.05;;;9.10;99.90;;;;;;5100235;28;20039;-75
2023/12/01 12:17:34;;;;;;;5.28;4.50;;;9.20;99.90;;;;;;5095991;28;20020;-74
2023/12/01 12:19:59;;;;;;;6.90;4.40;;;9.20;99.90;;;;;;5100143;28;20016;-74
2023/12/01 12:22:26;;;;;;;5.35;4.60;;;9.20;99.90;;;;;;5100212;28;20081;-73
2023/12/01 12:24:52;;;;;;;5.22;4.40;;;9.20;99.90;;;;;;5098756;28;20098;-75
2023/12/01 12:27:17;;;;;;;5.40;4.90;;;9.20;99.90;;;;;;5102461;28;20075;-76
2023/12/01 12:29:44;;;;;;;5.72;4.53;;;9.20;99.90;;;;;;5102518;28;20035;-75
2023/12/01 12:32:10;;;;;;;4.65;4.15;;;9.10;99.90;;;;;;5097070;28;20074;-75
2023/12/01 12:34:38;;;;;;;5.47;4.20;;;9.10;99.90;;;;;;5096883;28;20027;-75
2023/12/01 12:37:04;;;;;;;4.97;4.47;;;9.10;99.90;;;;;;5093548;28;20032;-75
2023/12/01 12:39:32;;;;;;;5.68;4.72;;;9.10;99.90;;;;;;5098050;28;20515;-75
2023/12/01 12:41:59;;;;;;;5.30;4.78;;;9.10;99.90;;;;;;5096187;28;20027;-74
2023/12/01 12:44:25;;;;;;;4.80;4.38;;;9.10;99.90;;;;;;5093020;28;20020;-75
2023/12/01 12:47:02;;;;;;;6.60;4.78;;;9.10;99.90;;;;;;5096593;28;20036;-74
2023/12/01 12:49:34;;;;;;;8.35;4.88;;;9.10;99.90;;;;;;5096403;28;20078;-74
2023/12/01 12:52:01;;;;;;;4.90;4.45;;;9.10;99.90;;;;;;5095622;28;20101;-75
2023/12/01 12:54:27;;;;;;;5.18;4.60;;;9.10;99.90;;;;;;5098355;28;20077;-73